createdAt,value
2018-06-08T00:03:15.445Z,19.80
2018-06-08T00:05:44.232Z,19.70
2018-06-08T00:08:13.157Z,19.50
2018-06-08T00:10:42.181Z,19.40
2018-06-08T00:13:11.079Z,19.40
2018-06-08T00:15:39.736Z,19.30
2018-06-08T00:20:37.140Z,19.30
2018-06-08T00:23:05.758Z,19.40
2018-06-08T00:25:37.458Z,19.40
2018-06-08T00:28:06.176Z,19.30
2018-06-08T00:30:35.282Z,19.30
2018-06-08T00:33:04.097Z,19.30
2018-06-08T00:35:33.029Z,19.30
2018-06-08T00:38:01.911Z,19.30
2018-06-08T00:40:30.631Z,19.30
2018-06-08T00:42:59.590Z,19.30
2018-06-08T00:45:30.906Z,19.20
2018-06-08T00:47:59.649Z,19.20
2018-06-08T00:50:28.537Z,19.10
2018-06-08T00:52:58.321Z,19.10
2018-06-08T00:55:27.128Z,19.10
2018-06-08T00:57:57.088Z,19.00
2018-06-08T01:00:25.738Z,19.00
2018-06-08T01:02:54.398Z,19.00
2018-06-08T01:05:23.036Z,19.00
2018-06-08T01:07:51.704Z,19.10
2018-06-08T01:10:20.381Z,19.00
2018-06-08T01:12:48.959Z,19.00
2018-06-08T01:15:17.699Z,19.00
2018-06-08T01:17:46.445Z,19.00
2018-06-08T01:20:15.642Z,19.00
2018-06-08T01:22:45.205Z,18.90
2018-06-08T01:25:13.845Z,18.80
2018-06-08T01:27:42.521Z,18.80
2018-06-08T01:30:11.100Z,18.70
2018-06-08T01:32:39.718Z,18.70
2018-06-08T01:37:36.569Z,18.60
2018-06-08T01:42:33.557Z,18.50
2018-06-08T01:45:02.235Z,18.40
2018-06-08T01:47:30.886Z,18.40
2018-06-08T01:49:59.579Z,18.40
2018-06-08T01:52:28.284Z,18.40
2018-06-08T01:54:56.992Z,18.40
2018-06-08T01:57:25.711Z,18.30
2018-06-08T01:59:54.441Z,18.30
2018-06-08T02:02:23.007Z,18.20
2018-06-08T02:07:19.835Z,18.10
2018-06-08T02:09:48.412Z,18.20
2018-06-08T02:12:17.170Z,18.10
2018-06-08T02:14:45.800Z,18.00
2018-06-08T02:17:14.486Z,18.00
2018-06-08T02:19:43.179Z,18.00
2018-06-08T02:24:40.295Z,18.00
2018-06-08T02:27:08.972Z,17.90
2018-06-08T02:29:37.555Z,18.00
2018-06-08T02:32:06.100Z,18.00
2018-06-08T02:34:34.693Z,18.00
2018-06-08T02:37:03.278Z,18.00
2018-06-08T02:39:31.990Z,17.90
2018-06-08T02:42:00.622Z,17.90
2018-06-08T02:44:29.352Z,17.90
2018-06-08T02:46:57.895Z,17.80
2018-06-08T02:49:26.635Z,17.80
2018-06-08T02:51:55.360Z,17.70
2018-06-08T02:54:24.018Z,17.70
2018-06-08T02:56:52.586Z,17.60
2018-06-08T02:59:21.134Z,17.50
2018-06-08T03:01:49.808Z,17.50
2018-06-08T03:04:18.325Z,17.40
2018-06-08T03:06:46.959Z,17.50
2018-06-08T03:11:43.992Z,17.50
2018-06-08T03:14:12.644Z,17.50
2018-06-08T03:16:41.350Z,17.50
2018-06-08T03:19:09.986Z,17.50
2018-06-08T03:21:38.671Z,17.50
2018-06-08T03:24:07.447Z,17.50
2018-06-08T03:26:36.141Z,17.50
2018-06-08T03:29:04.828Z,17.50
2018-06-08T03:31:33.386Z,17.50
2018-06-08T03:34:01.966Z,17.50
2018-06-08T03:38:58.901Z,17.50
2018-06-08T03:41:27.582Z,17.60
2018-06-08T03:43:56.200Z,17.60
2018-06-08T03:48:53.131Z,17.70
2018-06-08T03:51:21.974Z,17.60
2018-06-08T03:53:50.525Z,17.60
2018-06-08T03:58:47.278Z,17.60
2018-06-08T04:01:15.959Z,17.70
2018-06-08T04:06:12.962Z,17.90
2018-06-08T04:08:41.610Z,18.10
2018-06-08T04:13:38.504Z,18.40
2018-06-08T04:16:07.191Z,18.50
2018-06-08T04:18:35.836Z,18.50
2018-06-08T04:21:04.633Z,18.50
2018-06-08T04:23:33.299Z,18.50
2018-06-08T04:30:58.581Z,18.40
2018-06-08T04:33:27.307Z,18.30
2018-06-08T04:35:55.847Z,18.30
2018-06-08T04:38:24.488Z,18.20
2018-06-08T04:40:53.197Z,18.20
2018-06-08T04:43:21.991Z,18.20
2018-06-08T04:45:50.748Z,18.20
2018-06-08T04:50:47.869Z,18.20
2018-06-08T04:53:16.581Z,18.20
2018-06-08T04:55:45.320Z,18.20
2018-06-08T04:58:14.084Z,18.20
2018-06-08T05:00:42.724Z,18.20
2018-06-08T05:03:11.424Z,18.10
2018-06-08T05:05:40.067Z,18.10
2018-06-08T05:08:08.825Z,18.00
2018-06-08T05:10:37.518Z,17.90
2018-06-08T05:13:06.255Z,17.90
2018-06-08T05:15:35.076Z,18.00
2018-06-08T05:18:03.830Z,18.00
2018-06-08T05:20:32.555Z,18.00
2018-06-08T05:23:01.272Z,18.00
2018-06-08T05:25:29.964Z,17.90
2018-06-08T05:27:58.629Z,17.90
2018-06-08T05:30:27.550Z,18.00
2018-06-08T05:32:56.296Z,18.10
2018-06-08T05:35:24.991Z,18.20
2018-06-08T05:37:53.688Z,18.30
2018-06-08T05:40:22.364Z,18.50
2018-06-08T05:42:51.110Z,18.70
2018-06-08T05:45:19.840Z,18.80
2018-06-08T05:47:48.504Z,19.00
2018-06-08T05:50:17.184Z,19.10
2018-06-08T05:52:45.886Z,19.20
2018-06-08T05:55:14.703Z,19.30
2018-06-08T05:57:44.354Z,19.40
2018-06-08T06:00:13.097Z,19.40
2018-06-08T06:02:41.799Z,19.50
2018-06-08T06:05:10.475Z,19.50
2018-06-08T06:07:39.212Z,19.50
2018-06-08T06:10:07.919Z,19.60
2018-06-08T06:12:36.567Z,19.50
2018-06-08T06:15:05.267Z,19.60
2018-06-08T06:17:34.043Z,19.70
2018-06-08T06:20:02.689Z,19.80
2018-06-08T06:22:31.303Z,19.90
2018-06-08T06:24:59.968Z,20.00
2018-06-08T06:27:29.682Z,20.00
2018-06-08T06:29:58.403Z,20.10
2018-06-08T06:32:27.122Z,20.00
2018-06-08T06:34:55.754Z,20.10
2018-06-08T06:37:24.603Z,20.20
2018-06-08T06:39:53.187Z,20.20
2018-06-08T06:44:50.787Z,20.40
2018-06-08T06:47:20.609Z,20.50
2018-06-08T06:49:49.276Z,20.50
2018-06-08T06:52:17.912Z,20.60
2018-06-08T06:54:46.611Z,20.70
2018-06-08T06:57:15.989Z,20.70
2018-06-08T06:59:44.715Z,20.70
2018-06-08T07:04:41.636Z,20.70
2018-06-08T07:07:10.395Z,20.70
2018-06-08T07:09:39.096Z,20.70
2018-06-08T07:12:07.790Z,20.70
2018-06-08T07:14:37.700Z,20.80
2018-06-08T07:19:34.868Z,21.00
2018-06-08T07:22:03.534Z,21.10
2018-06-08T07:24:32.327Z,21.20
2018-06-08T07:27:03.102Z,21.20
2018-06-08T07:29:31.644Z,21.10
2018-06-08T07:32:00.499Z,21.00
2018-06-08T07:34:29.165Z,21.00
2018-06-08T07:36:59.046Z,21.20
2018-06-08T07:39:27.645Z,21.30
2018-06-08T07:41:56.413Z,21.40
2018-06-08T07:44:24.993Z,21.50
2018-06-08T07:46:53.752Z,21.60
2018-06-08T07:49:22.442Z,21.60
2018-06-08T07:51:51.198Z,21.70
2018-06-08T07:54:19.872Z,21.80
2018-06-08T07:56:48.713Z,21.90
2018-06-08T07:59:17.410Z,22.10
2018-06-08T08:01:46.097Z,22.10
2018-06-08T08:04:14.666Z,22.20
2018-06-08T08:06:43.336Z,22.40
2018-06-08T08:09:11.969Z,22.50
2018-06-08T08:11:40.605Z,22.50
2018-06-08T08:14:09.265Z,22.50
2018-06-08T08:16:37.958Z,22.50
2018-06-08T08:19:08.722Z,22.40
2018-06-08T08:21:37.448Z,22.40
2018-06-08T08:26:34.475Z,22.50
2018-06-08T08:29:11.287Z,22.60
2018-06-08T08:31:39.937Z,22.80
2018-06-08T08:34:08.623Z,23.10
2018-06-08T08:36:37.201Z,23.30
2018-06-08T08:39:09.852Z,23.40
2018-06-08T08:41:38.476Z,23.50
2018-06-08T08:44:07.193Z,23.60
2018-06-08T08:46:35.953Z,23.50
2018-06-08T08:49:08.857Z,23.40
2018-06-08T08:56:34.192Z,23.80
2018-06-08T08:59:04.066Z,24.10
2018-06-08T09:01:32.752Z,24.20
2018-06-08T09:04:01.407Z,24.20
2018-06-08T09:06:29.995Z,24.20
2018-06-08T09:08:58.851Z,24.30
2018-06-08T09:11:27.478Z,24.50
2018-06-08T09:13:56.230Z,24.70
2018-06-08T09:16:24.888Z,24.80
2018-06-08T09:21:22.038Z,24.90
2018-06-08T09:23:50.697Z,24.90
2018-06-08T09:26:19.468Z,24.90
2018-06-08T09:28:48.335Z,24.70
2018-06-08T09:31:17.069Z,24.60
2018-06-08T09:33:45.735Z,24.60
2018-06-08T09:36:14.292Z,24.60
2018-06-08T09:38:46.656Z,24.60
2018-06-08T09:41:15.310Z,24.70
2018-06-08T09:46:12.477Z,24.40
2018-06-08T09:48:43.210Z,24.30
2018-06-08T09:53:40.649Z,24.10
2018-06-08T09:56:09.368Z,24.20
2018-06-08T09:58:41.291Z,24.20
2018-06-08T10:01:09.959Z,24.20
2018-06-08T10:03:38.676Z,24.20
2018-06-08T10:06:07.311Z,24.10
2018-06-08T10:08:38.130Z,24.20
2018-06-08T10:11:07.621Z,24.20
2018-06-08T10:16:04.609Z,24.20
2018-06-08T10:18:38.186Z,24.30
2018-06-08T10:21:06.941Z,24.20
2018-06-08T10:23:35.646Z,24.10
2018-06-08T10:26:04.297Z,24.00
2018-06-08T10:28:32.966Z,24.00
2018-06-08T10:31:01.653Z,23.90
2018-06-08T10:33:30.271Z,23.80
2018-06-08T10:35:58.920Z,23.70
2018-06-08T10:38:27.540Z,23.70
2018-06-08T10:40:56.266Z,23.50
2018-06-08T10:43:25.032Z,23.30
2018-06-08T10:48:22.093Z,23.10
2018-06-08T10:50:51.903Z,23.10
2018-06-08T10:53:20.525Z,22.90
2018-06-08T10:55:49.254Z,22.60
2018-06-08T10:58:17.961Z,22.20
2018-06-08T11:03:18.375Z,21.50
2018-06-08T11:05:47.131Z,21.20
2018-06-08T11:08:15.872Z,20.80
2018-06-08T11:10:58.271Z,20.50
2018-06-08T11:15:55.275Z,20.10
2018-06-08T11:18:24.041Z,19.90
2018-06-08T11:20:53.770Z,19.80
2018-06-08T11:23:22.537Z,19.70
2018-06-08T11:25:51.299Z,19.60
2018-06-08T11:28:19.940Z,19.50
2018-06-08T11:30:48.740Z,19.40
2018-06-08T11:33:17.415Z,19.40
2018-06-08T11:35:45.993Z,19.30
2018-06-08T11:38:14.602Z,19.20
2018-06-08T11:40:43.315Z,19.20
2018-06-08T11:43:11.978Z,19.10
2018-06-08T11:45:40.714Z,19.00
2018-06-08T11:48:09.353Z,19.00
2018-06-08T11:50:39.027Z,18.90
2018-06-08T11:53:07.786Z,18.80
2018-06-08T11:55:36.481Z,18.70
2018-06-08T11:58:05.275Z,18.60
2018-06-08T12:00:34.079Z,18.50
2018-06-08T12:03:02.751Z,18.40
2018-06-08T12:05:31.562Z,18.40
2018-06-08T12:08:00.276Z,18.40
2018-06-08T12:10:29.051Z,18.30
2018-06-08T12:12:57.693Z,18.30
2018-06-08T12:15:26.426Z,18.20
2018-06-08T12:17:55.050Z,18.10
2018-06-08T12:20:23.769Z,18.10
2018-06-08T12:22:52.420Z,18.00
2018-06-08T12:25:21.098Z,18.00
2018-06-08T12:27:49.714Z,18.00
2018-06-08T12:30:18.391Z,18.00
2018-06-08T12:32:47.000Z,18.00
2018-06-08T12:35:15.738Z,17.90
2018-06-08T12:37:44.376Z,17.90
2018-06-08T12:42:41.455Z,18.00
2018-06-08T12:45:10.265Z,18.00
2018-06-08T12:47:38.924Z,18.10
2018-06-08T12:50:11.057Z,18.10
2018-06-08T12:52:39.703Z,18.20
2018-06-08T12:55:08.432Z,18.20
2018-06-08T12:57:37.169Z,18.20
2018-06-08T13:00:06.001Z,18.30
2018-06-08T13:02:35.690Z,18.40
2018-06-08T13:05:04.494Z,18.40
2018-06-08T13:07:33.191Z,18.50
2018-06-08T13:15:04.115Z,18.60
2018-06-08T13:17:32.866Z,18.50
2018-06-08T13:20:01.679Z,18.50
2018-06-08T13:22:30.388Z,18.50
2018-06-08T13:24:59.189Z,18.60
2018-06-08T13:27:27.775Z,18.70
2018-06-08T13:29:56.518Z,18.80
2018-06-08T13:32:27.334Z,19.00
2018-06-08T13:34:56.139Z,19.20
2018-06-08T13:37:24.927Z,19.70
2018-06-08T13:39:53.647Z,20.00
2018-06-08T13:42:22.343Z,20.20
2018-06-08T13:44:50.969Z,20.50
2018-06-08T13:47:19.590Z,20.90
2018-06-08T13:49:48.263Z,21.60
2018-06-08T13:52:20.436Z,22.00
2018-06-08T13:54:49.194Z,22.30
2018-06-08T13:57:17.847Z,22.80
2018-06-08T13:59:46.499Z,23.00
2018-06-08T14:02:15.522Z,22.90
2018-06-08T14:07:13.693Z,23.30
2018-06-08T14:12:14.171Z,23.50
2018-06-08T14:14:42.809Z,23.80
2018-06-08T14:17:11.385Z,23.80
2018-06-08T14:19:40.124Z,23.80
2018-06-08T14:22:08.925Z,23.50
2018-06-08T14:24:37.725Z,23.40
2018-06-08T14:27:06.468Z,23.40
2018-06-08T14:29:35.089Z,23.50
2018-06-08T14:32:03.893Z,23.60
2018-06-08T14:34:32.520Z,23.40
2018-06-08T14:37:01.221Z,23.30
2018-06-08T14:39:29.850Z,23.70
2018-06-08T14:41:58.594Z,24.00
2018-06-08T14:44:27.226Z,24.00
2018-06-08T14:46:55.914Z,24.20
2018-06-08T14:49:24.526Z,24.20
2018-06-08T14:51:53.543Z,24.30
2018-06-08T14:54:22.223Z,24.40
2018-06-08T14:56:50.879Z,24.40
2018-06-08T14:59:19.550Z,24.20
2018-06-08T15:01:49.341Z,24.10
2018-06-08T15:04:18.020Z,23.80
2018-06-08T15:06:46.674Z,23.80
2018-06-08T15:09:15.395Z,23.90
2018-06-08T15:11:45.071Z,24.00
2018-06-08T15:14:14.664Z,24.20
2018-06-08T15:16:43.343Z,24.50
2018-06-08T15:19:11.980Z,24.80
2018-06-08T15:21:40.671Z,24.90
2018-06-08T15:24:09.404Z,25.10
2018-06-08T15:26:38.103Z,25.20
2018-06-08T15:29:06.793Z,25.30
2018-06-08T15:31:35.509Z,25.50
2018-06-08T15:34:04.341Z,25.70
2018-06-08T15:36:33.071Z,25.90
2018-06-08T15:39:01.809Z,26.10
2018-06-08T15:41:30.505Z,26.60
2018-06-08T15:43:59.212Z,28.10
2018-06-08T15:46:27.825Z,29.30
2018-06-08T15:48:56.515Z,30.00
2018-06-08T15:51:25.262Z,30.00
2018-06-08T15:53:54.019Z,29.40
2018-06-08T15:56:22.666Z,28.70
2018-06-08T15:58:51.299Z,28.90
2018-06-08T16:01:19.955Z,29.90
2018-06-08T16:03:48.571Z,30.30
2018-06-08T16:06:17.367Z,30.40
2018-06-08T16:08:46.076Z,31.20
2018-06-08T16:11:14.722Z,32.80
2018-06-08T16:13:44.537Z,34.50
2018-06-08T16:16:13.284Z,35.40
2018-06-08T16:18:41.950Z,35.80
2018-06-08T16:21:10.547Z,35.80
2018-06-08T16:26:07.668Z,32.60
2018-06-08T16:28:36.461Z,31.50
2018-06-08T16:31:05.148Z,30.60
2018-06-08T16:33:34.717Z,29.10
2018-06-08T16:36:03.370Z,28.30
2018-06-08T16:38:31.973Z,28.40
2018-06-08T16:41:00.798Z,28.80
2018-06-08T16:43:29.469Z,30.10
2018-06-08T16:45:58.299Z,31.60
2018-06-08T16:48:26.923Z,33.20
2018-06-08T16:50:55.673Z,33.50
2018-06-08T16:53:24.495Z,32.40
2018-06-08T16:55:53.239Z,32.10
2018-06-08T16:58:21.875Z,31.40
2018-06-08T17:00:50.643Z,30.40
2018-06-08T17:03:19.260Z,29.70
2018-06-08T17:05:47.896Z,30.90
2018-06-08T17:10:44.866Z,33.60
2018-06-08T17:13:13.599Z,33.80
2018-06-08T17:15:42.366Z,34.30
2018-06-08T17:18:11.094Z,34.60
2018-06-08T17:20:39.666Z,34.80
2018-06-08T17:23:08.458Z,34.70
2018-06-08T17:25:37.221Z,33.90
2018-06-08T17:28:05.950Z,32.60
2018-06-08T17:33:03.043Z,29.90
2018-06-08T17:35:31.672Z,28.80
2018-06-08T17:38:00.422Z,28.00
2018-06-08T17:40:29.090Z,27.40
2018-06-08T17:42:57.751Z,26.60
2018-06-08T17:47:54.786Z,25.70
2018-06-08T17:50:23.468Z,25.50
2018-06-08T17:52:52.258Z,25.40
2018-06-08T17:55:21.079Z,25.30
2018-06-08T17:57:49.831Z,25.40
2018-06-08T18:00:18.465Z,25.50
2018-06-08T18:02:47.240Z,25.50
2018-06-08T18:05:15.919Z,25.50
2018-06-08T18:07:44.600Z,25.40
2018-06-08T18:10:13.271Z,25.20
2018-06-08T18:12:41.922Z,25.00
2018-06-08T18:15:10.644Z,24.70
2018-06-08T18:20:08.689Z,24.10
2018-06-08T18:22:37.306Z,23.90
2018-06-08T18:32:31.075Z,23.00
2018-06-08T18:34:59.807Z,22.90
2018-06-08T18:37:28.638Z,22.80
2018-06-08T18:39:58.308Z,22.70
2018-06-08T18:42:27.035Z,22.70
2018-06-08T18:44:55.707Z,22.60
2018-06-08T18:47:24.412Z,22.50
2018-06-08T18:49:53.182Z,22.40
2018-06-08T18:52:21.814Z,22.20
2018-06-08T18:54:50.609Z,22.10
2018-06-08T18:57:19.270Z,21.90
2018-06-08T18:59:48.007Z,21.70
2018-06-08T19:02:16.706Z,21.50
2018-06-08T19:04:45.377Z,21.40
2018-06-08T19:07:14.040Z,21.20
2018-06-08T19:09:42.785Z,21.00
2018-06-08T19:12:12.316Z,20.90
2018-06-08T19:14:41.103Z,20.80
2018-06-08T19:17:09.791Z,20.60
2018-06-08T19:19:38.518Z,20.50
2018-06-08T19:22:07.317Z,20.30
2018-06-08T19:24:35.994Z,20.10
2018-06-08T19:27:04.712Z,19.90
2018-06-08T19:29:33.331Z,19.70
2018-06-08T19:34:30.567Z,19.20
2018-06-08T19:36:59.265Z,19.20
2018-06-08T19:39:27.965Z,19.10
2018-06-08T19:44:25.129Z,19.10
2018-06-08T19:46:53.763Z,19.10
2018-06-08T19:49:23.360Z,19.00
2018-06-08T19:51:52.086Z,18.90
2018-06-08T19:54:20.750Z,18.70
2018-06-08T19:56:49.536Z,18.60
2018-06-08T19:59:18.260Z,18.60
2018-06-08T20:04:15.380Z,18.80
2018-06-08T20:06:44.077Z,18.70
2018-06-08T20:09:12.711Z,18.70
2018-06-08T20:11:41.395Z,18.80
2018-06-08T20:14:10.058Z,18.80
2018-06-08T20:16:38.737Z,18.90
2018-06-08T20:19:07.497Z,19.00
2018-06-08T20:21:36.128Z,19.00
2018-06-08T20:24:04.765Z,19.10
2018-06-08T20:26:33.435Z,19.10
2018-06-08T20:29:02.108Z,19.00
2018-06-08T20:31:30.820Z,19.00
2018-06-08T20:33:59.387Z,19.00
2018-06-08T20:36:28.154Z,19.00
2018-06-08T20:38:56.834Z,19.10
2018-06-08T20:41:25.427Z,19.20
2018-06-08T20:43:54.160Z,19.20
2018-06-08T20:46:22.693Z,19.10
2018-06-08T20:48:51.430Z,19.20
2018-06-08T20:53:48.486Z,19.10
2018-06-08T20:56:17.156Z,19.10
2018-06-08T20:58:45.863Z,19.10
2018-06-08T21:01:14.585Z,19.00
2018-06-08T21:03:43.292Z,19.00
2018-06-08T21:06:11.916Z,19.00
2018-06-08T21:11:09.109Z,19.10
2018-06-08T21:13:37.753Z,19.10
2018-06-08T21:16:06.501Z,19.10
2018-06-08T21:18:35.126Z,19.10
2018-06-08T21:21:03.660Z,19.10
2018-06-08T21:23:32.346Z,19.10
2018-06-08T21:26:01.000Z,19.10
2018-06-08T21:28:29.692Z,19.10
2018-06-08T21:30:58.428Z,19.00
2018-06-08T21:33:27.096Z,19.00
2018-06-08T21:35:55.744Z,19.00
2018-06-08T21:38:24.343Z,18.90
2018-06-08T21:40:52.888Z,18.90
2018-06-08T21:43:21.630Z,18.90
2018-06-08T21:45:50.286Z,18.90
2018-06-08T21:48:19.719Z,18.80
2018-06-08T21:50:48.399Z,18.80
2018-06-08T21:53:17.165Z,18.80
2018-06-08T21:55:45.744Z,18.80
2018-06-08T21:58:14.383Z,18.70
2018-06-08T22:00:43.106Z,18.60
2018-06-08T22:03:11.828Z,18.60
2018-06-08T22:05:40.620Z,18.50
2018-06-08T22:08:09.176Z,18.50
2018-06-08T22:10:37.818Z,18.50
2018-06-08T22:15:34.755Z,18.40
2018-06-08T22:18:03.510Z,18.30
2018-06-08T22:20:32.231Z,18.30
2018-06-08T22:23:00.898Z,18.20
2018-06-08T22:25:29.673Z,18.20
2018-06-08T22:27:58.352Z,18.10
2018-06-08T22:30:27.059Z,18.10
2018-06-08T22:32:55.917Z,18.00
2018-06-08T22:35:24.486Z,18.00
2018-06-08T22:37:54.025Z,17.90
2018-06-08T22:40:22.640Z,17.80
2018-06-08T22:47:47.892Z,17.50
2018-06-08T22:50:16.548Z,17.30
2018-06-08T22:52:45.146Z,17.30
2018-06-08T22:55:13.834Z,17.20
2018-06-08T22:57:42.558Z,17.20
2018-06-08T23:00:12.330Z,17.10
2018-06-08T23:02:40.879Z,16.90
2018-06-08T23:05:09.570Z,16.90
2018-06-08T23:07:38.246Z,16.80
2018-06-08T23:10:06.961Z,16.80
2018-06-08T23:12:35.608Z,16.70
2018-06-08T23:15:04.585Z,16.60
2018-06-08T23:17:33.306Z,16.60
2018-06-08T23:20:01.882Z,16.50
2018-06-08T23:22:30.516Z,16.50
2018-06-08T23:24:59.224Z,16.50
2018-06-08T23:27:27.931Z,16.50
2018-06-08T23:29:56.614Z,16.40
2018-06-08T23:32:25.261Z,16.40
2018-06-08T23:34:53.941Z,16.40
2018-06-08T23:37:22.466Z,16.40
2018-06-08T23:39:51.136Z,16.30
2018-06-08T23:42:19.870Z,16.30
2018-06-08T23:44:48.481Z,16.30
2018-06-08T23:47:17.105Z,16.20
2018-06-08T23:49:45.741Z,16.10
2018-06-08T23:52:14.316Z,16.00
2018-06-08T23:54:44.018Z,15.90
2018-06-08T23:57:12.656Z,15.90
2018-06-08T23:59:41.427Z,15.90
